createdAt,value
2023-01-10T00:02:05.881Z,18.70
2023-01-10T00:04:34.277Z,19.00
2023-01-10T00:07:03.184Z,17.70
2023-01-10T00:09:32.948Z,19.40
2023-01-10T00:12:18.959Z,17.87
2023-01-10T00:14:47.303Z,17.77
2023-01-10T00:17:16.313Z,18.67
2023-01-10T00:19:44.686Z,17.13
2023-01-10T00:22:21.835Z,16.77
2023-01-10T00:24:51.852Z,18.30
2023-01-10T00:27:23.481Z,17.87
2023-01-10T00:29:53.348Z,18.63
2023-01-10T00:32:22.712Z,16.40
2023-01-10T00:34:51.171Z,17.23
2023-01-10T00:37:20.021Z,15.10
2023-01-10T00:39:48.446Z,16.33
2023-01-10T00:42:35.972Z,15.33
2023-01-10T00:45:04.645Z,14.17
2023-01-10T00:47:33.365Z,15.30
2023-01-10T00:50:02.099Z,15.40
2023-01-10T00:52:30.886Z,16.90
2023-01-10T00:54:59.475Z,16.93
2023-01-10T00:57:29.545Z,16.43
2023-01-10T00:59:57.978Z,16.30
2023-01-10T01:02:27.168Z,15.57
2023-01-10T01:04:55.727Z,16.70
2023-01-10T01:07:24.482Z,15.33
2023-01-10T01:10:10.322Z,16.10
2023-01-10T01:12:40.378Z,15.60
2023-01-10T01:15:09.792Z,16.60
2023-01-10T01:17:38.415Z,14.87
2023-01-10T01:20:08.154Z,14.57
2023-01-10T01:22:37.600Z,14.83
2023-01-10T01:25:06.942Z,14.57
2023-01-10T01:27:38.061Z,14.63
2023-01-10T01:30:10.841Z,14.73
2023-01-10T01:32:39.977Z,15.00
2023-01-10T01:35:09.782Z,12.20
2023-01-10T01:37:38.471Z,14.37
2023-01-10T01:40:08.924Z,12.30
2023-01-10T01:42:38.044Z,12.27
2023-01-10T01:45:41.485Z,11.77
2023-01-10T01:48:24.513Z,11.40
2023-01-10T01:51:05.248Z,11.40
2023-01-10T01:53:38.398Z,12.20
2023-01-10T01:56:12.065Z,11.23
2023-01-10T01:58:47.956Z,12.17
2023-01-10T02:01:18.776Z,12.00
2023-01-10T02:03:52.582Z,10.87
2023-01-10T02:06:23.103Z,10.50
2023-01-10T02:08:58.192Z,10.20
2023-01-10T02:11:26.657Z,10.00
2023-01-10T02:13:56.378Z,11.17
2023-01-10T02:16:26.151Z,10.53
2023-01-10T02:18:54.993Z,9.83
2023-01-10T02:21:49.289Z,10.37
2023-01-10T02:24:51.624Z,9.97
2023-01-10T02:27:29.434Z,9.10
2023-01-10T02:30:19.912Z,12.10
2023-01-10T02:33:04.304Z,10.57
2023-01-10T02:35:51.841Z,9.80
2023-01-10T02:38:31.010Z,9.73
2023-01-10T02:41:07.742Z,10.43
2023-01-10T02:43:40.247Z,10.87
2023-01-10T02:46:13.180Z,10.97
2023-01-10T02:48:43.082Z,10.47
2023-01-10T02:51:19.668Z,10.10
2023-01-10T02:53:53.379Z,10.33
2023-01-10T02:57:05.512Z,9.57
2023-01-10T02:59:58.689Z,9.97
2023-01-10T03:02:44.303Z,9.60
2023-01-10T03:05:23.846Z,10.80
2023-01-10T03:08:01.747Z,11.07
2023-01-10T03:10:33.903Z,10.83
2023-01-10T03:13:07.117Z,9.03
2023-01-10T03:15:38.705Z,10.57
2023-01-10T03:18:13.797Z,10.83
2023-01-10T03:20:47.803Z,9.67
2023-01-10T03:23:19.238Z,10.27
2023-01-10T03:25:48.939Z,10.03
2023-01-10T03:28:23.565Z,9.67
2023-01-10T03:30:55.346Z,10.77
2023-01-10T03:33:28.128Z,9.43
2023-01-10T03:36:08.947Z,9.47
2023-01-10T03:38:45.854Z,8.73
2023-01-10T03:41:18.092Z,9.37
2023-01-10T03:44:10.666Z,9.20
2023-01-10T03:46:45.175Z,9.30
2023-01-10T03:49:16.262Z,9.23
2023-01-10T03:51:47.328Z,8.63
2023-01-10T03:54:17.624Z,9.33
2023-01-10T03:56:47.683Z,9.30
2023-01-10T03:59:16.691Z,8.43
2023-01-10T04:01:45.171Z,9.97
2023-01-10T04:04:14.208Z,10.03
2023-01-10T04:06:42.723Z,10.90
2023-01-10T04:09:13.010Z,10.90
2023-01-10T04:11:41.472Z,10.77
2023-01-10T04:14:10.267Z,10.87
2023-01-10T04:16:38.570Z,11.30
2023-01-10T04:19:07.441Z,10.77
2023-01-10T04:21:35.905Z,9.37
2023-01-10T04:24:05.009Z,8.83
2023-01-10T04:26:34.855Z,10.50
2023-01-10T04:29:03.593Z,9.20
2023-01-10T04:31:31.961Z,10.80
2023-01-10T04:34:01.126Z,9.30
2023-01-10T04:36:29.811Z,9.73
2023-01-10T04:38:58.490Z,9.03
2023-01-10T04:41:26.878Z,9.33
2023-01-10T04:43:57.029Z,9.63
2023-01-10T04:46:25.477Z,8.57
2023-01-10T04:48:54.271Z,9.03
2023-01-10T04:51:22.874Z,10.00
2023-01-10T04:53:52.061Z,9.60
2023-01-10T04:56:22.009Z,9.80
2023-01-10T04:58:53.767Z,8.80
2023-01-10T05:01:25.530Z,8.93
2023-01-10T05:03:55.602Z,10.40
2023-01-10T05:06:25.429Z,9.20
2023-01-10T05:08:54.291Z,9.60
2023-01-10T05:11:22.633Z,10.80
2023-01-10T05:13:51.447Z,11.87
2023-01-10T05:16:19.853Z,12.43
2023-01-10T05:18:50.778Z,12.13
2023-01-10T05:21:19.679Z,13.23
2023-01-10T05:23:49.819Z,12.00
2023-01-10T05:26:20.058Z,11.87
2023-01-10T05:28:48.742Z,11.37
2023-01-10T05:31:20.024Z,10.37
2023-01-10T05:33:52.278Z,9.53
2023-01-10T05:36:20.920Z,8.60
2023-01-10T05:38:49.755Z,8.47
2023-01-10T05:41:18.379Z,9.37
2023-01-10T05:43:47.290Z,8.67
2023-01-10T05:46:15.801Z,8.87
2023-01-10T05:48:44.556Z,8.33
2023-01-10T05:51:14.638Z,8.70
2023-01-10T05:53:43.383Z,8.70
2023-01-10T05:56:11.787Z,10.07
2023-01-10T05:58:40.796Z,9.20
2023-01-10T06:01:09.832Z,8.33
2023-01-10T06:03:38.534Z,9.07
2023-01-10T06:06:07.302Z,10.67
2023-01-10T06:08:37.864Z,8.47
2023-01-10T06:11:06.970Z,8.93
2023-01-10T06:13:35.860Z,8.77
2023-01-10T06:16:04.893Z,9.00
2023-01-10T06:18:33.510Z,7.77
2023-01-10T06:21:02.356Z,7.73
2023-01-10T06:23:31.107Z,8.20
2023-01-10T06:26:00.952Z,8.47
2023-01-10T06:28:29.851Z,8.27
2023-01-10T06:30:58.211Z,9.03
2023-01-10T06:33:27.406Z,13.23
2023-01-10T06:35:55.790Z,9.43
2023-01-10T06:38:24.399Z,8.23
2023-01-10T06:40:52.816Z,8.27
2023-01-10T06:43:25.167Z,9.10
2023-01-10T06:45:54.946Z,8.33
2023-01-10T06:48:23.719Z,9.10
2023-01-10T06:50:52.150Z,15.50
2023-01-10T06:53:21.257Z,11.27
2023-01-10T06:55:50.572Z,11.63
2023-01-10T06:58:19.318Z,21.20
2023-01-10T07:00:49.130Z,15.27
2023-01-10T07:03:18.288Z,19.20
2023-01-10T07:05:47.278Z,24.57
2023-01-10T07:08:16.184Z,19.70
2023-01-10T07:10:45.094Z,15.57
2023-01-10T07:13:13.742Z,16.63
2023-01-10T07:15:42.114Z,11.93
2023-01-10T07:18:12.918Z,13.97
2023-01-10T07:20:41.562Z,11.77
2023-01-10T07:23:11.000Z,13.77
2023-01-10T07:25:39.373Z,18.50
2023-01-10T07:28:08.311Z,13.97
2023-01-10T07:30:37.650Z,11.83
2023-01-10T07:33:06.392Z,12.20
2023-01-10T07:35:36.171Z,12.50
2023-01-10T07:38:05.568Z,10.60
2023-01-10T07:40:33.916Z,9.20
2023-01-10T07:43:03.745Z,9.53
2023-01-10T07:45:32.502Z,10.87
2023-01-10T07:48:02.413Z,9.80
2023-01-10T07:50:32.432Z,9.87
2023-01-10T07:53:03.890Z,8.97
2023-01-10T07:55:34.794Z,10.73
2023-01-10T07:58:03.914Z,11.80
2023-01-10T08:00:32.318Z,9.73
2023-01-10T08:03:01.373Z,12.00
2023-01-10T08:05:30.036Z,22.17
2023-01-10T08:08:00.252Z,14.63
2023-01-10T08:10:30.149Z,11.70
2023-01-10T08:13:03.947Z,12.00
2023-01-10T08:15:38.272Z,10.20
2023-01-10T08:18:06.987Z,9.43
2023-01-10T08:20:35.417Z,9.17
2023-01-10T08:23:04.294Z,14.30
2023-01-10T08:25:34.145Z,10.57
2023-01-10T08:28:02.852Z,12.87
2023-01-10T08:30:32.050Z,15.20
2023-01-10T08:33:03.456Z,10.60
2023-01-10T08:35:32.094Z,20.83
2023-01-10T08:38:01.393Z,11.50
2023-01-10T08:40:29.842Z,11.63
2023-01-10T08:43:01.297Z,19.20
2023-01-10T08:45:30.059Z,16.10
2023-01-10T08:47:58.915Z,14.87
2023-01-10T08:50:27.696Z,34.43
2023-01-10T08:52:59.412Z,9.77
2023-01-10T08:55:28.636Z,12.40
2023-01-10T08:57:57.256Z,10.47
2023-01-10T09:00:27.155Z,12.03
2023-01-10T09:02:55.971Z,46.47
2023-01-10T09:05:27.918Z,46.47
2023-01-10T09:08:01.402Z,38.63
2023-01-10T09:10:30.630Z,54.70
2023-01-10T09:13:01.633Z,41.73
2023-01-10T09:15:33.784Z,17.00
2023-01-10T09:18:04.794Z,37.20
2023-01-10T09:20:35.387Z,34.03
2023-01-10T09:23:08.411Z,37.67
2023-01-10T09:25:37.165Z,37.00
2023-01-10T09:28:06.888Z,37.20
2023-01-10T09:30:37.416Z,34.23
2023-01-10T09:33:08.117Z,47.37
2023-01-10T09:35:38.651Z,35.83
2023-01-10T09:38:09.222Z,21.50
2023-01-10T09:40:52.753Z,20.03
2023-01-10T09:43:29.476Z,16.07
2023-01-10T09:46:05.706Z,13.70
2023-01-10T09:48:45.215Z,11.23
2023-01-10T09:51:30.028Z,13.13
2023-01-10T09:54:11.165Z,11.57
2023-01-10T09:56:41.597Z,9.97
2023-01-10T09:59:16.689Z,9.40
2023-01-10T10:01:47.844Z,9.13
2023-01-10T10:04:26.882Z,8.77
2023-01-10T10:06:55.706Z,9.13
2023-01-10T10:09:28.035Z,10.00
2023-01-10T10:12:20.912Z,10.10
2023-01-10T10:15:03.634Z,19.83
2023-01-10T10:17:43.252Z,10.60
2023-01-10T10:20:27.745Z,13.67
2023-01-10T10:23:07.580Z,15.40
2023-01-10T10:25:54.999Z,36.07
2023-01-10T10:28:55.153Z,27.60
2023-01-10T10:31:41.626Z,14.50
2023-01-10T10:34:20.498Z,11.43
2023-01-10T10:36:52.948Z,39.97
2023-01-10T10:39:29.747Z,49.43
2023-01-10T10:41:59.141Z,30.83
2023-01-10T10:44:34.831Z,38.20
2023-01-10T10:47:03.690Z,76.10
2023-01-10T10:49:39.654Z,45.53
2023-01-10T10:52:18.611Z,45.30
2023-01-10T10:54:47.940Z,23.30
2023-01-10T10:57:17.239Z,16.70
2023-01-10T10:59:48.818Z,9.80
2023-01-10T11:02:24.855Z,10.23
2023-01-10T11:04:58.385Z,12.53
2023-01-10T11:07:32.754Z,13.07
2023-01-10T11:10:10.267Z,10.13
2023-01-10T11:12:45.209Z,9.30
2023-01-10T11:15:13.612Z,10.37
2023-01-10T11:17:42.324Z,11.63
2023-01-10T11:20:18.133Z,10.17
2023-01-10T11:22:50.465Z,10.33
2023-01-10T11:25:21.800Z,10.10
2023-01-10T11:27:53.131Z,10.10
2023-01-10T11:30:24.682Z,11.80
2023-01-10T11:32:55.588Z,11.33
2023-01-10T11:35:28.333Z,11.23
2023-01-10T11:38:01.753Z,12.33
2023-01-10T11:40:30.801Z,10.33
2023-01-10T11:43:01.117Z,11.90
2023-01-10T11:45:32.599Z,13.10
2023-01-10T11:48:09.936Z,19.83
2023-01-10T11:50:42.834Z,11.00
2023-01-10T11:53:35.445Z,63.83
2023-01-10T11:56:05.390Z,45.03
2023-01-10T11:58:38.222Z,66.70
2023-01-10T12:01:07.169Z,59.47
2023-01-10T12:03:40.243Z,59.63
2023-01-10T12:06:16.278Z,33.00
2023-01-10T12:08:45.381Z,45.93
2023-01-10T12:11:27.388Z,51.57
2023-01-10T12:13:58.431Z,23.90
2023-01-10T12:16:28.938Z,10.47
2023-01-10T12:19:01.034Z,13.30
2023-01-10T12:21:38.381Z,11.10
2023-01-10T12:24:13.875Z,26.60
2023-01-10T12:26:43.644Z,51.03
2023-01-10T12:29:17.698Z,48.80
2023-01-10T12:31:46.670Z,42.83
2023-01-10T12:34:20.405Z,44.23
2023-01-10T12:36:59.543Z,21.60
2023-01-10T12:39:33.417Z,10.07
2023-01-10T12:42:32.614Z,9.57
2023-01-10T12:45:06.899Z,10.57
2023-01-10T12:47:44.654Z,12.33
2023-01-10T12:50:18.857Z,14.37
2023-01-10T12:52:56.349Z,10.57
2023-01-10T12:55:28.921Z,13.07
2023-01-10T12:58:00.887Z,9.73
2023-01-10T13:00:40.467Z,10.80
2023-01-10T13:03:20.841Z,8.43
2023-01-10T13:05:52.166Z,8.43
2023-01-10T13:08:26.711Z,11.53
2023-01-10T13:10:58.459Z,9.30
2023-01-10T13:13:37.228Z,10.27
2023-01-10T13:16:25.158Z,7.73
2023-01-10T13:19:02.288Z,8.93
2023-01-10T13:21:32.717Z,9.77
2023-01-10T13:24:04.526Z,9.37
2023-01-10T13:26:53.442Z,13.60
2023-01-10T13:29:24.462Z,38.63
2023-01-10T13:31:57.554Z,8.17
2023-01-10T13:34:33.074Z,65.27
2023-01-10T13:37:05.643Z,51.50
2023-01-10T13:39:39.426Z,17.33
2023-01-10T13:42:41.070Z,13.03
2023-01-10T13:45:21.189Z,9.40
2023-01-10T13:48:05.221Z,8.27
2023-01-10T13:51:16.710Z,10.00
2023-01-10T13:53:54.921Z,9.40
2023-01-10T13:56:39.452Z,10.03
2023-01-10T13:59:53.167Z,11.53
2023-01-10T14:02:32.107Z,13.10
2023-01-10T14:05:03.014Z,10.87
2023-01-10T14:07:35.547Z,10.33
2023-01-10T14:10:06.806Z,10.67
2023-01-10T14:12:40.300Z,9.53
2023-01-10T14:15:22.594Z,11.03
2023-01-10T14:17:59.426Z,8.70
2023-01-10T14:20:29.656Z,11.77
2023-01-10T14:23:20.561Z,10.57
2023-01-10T14:25:54.697Z,9.70
2023-01-10T14:28:26.958Z,10.17
2023-01-10T14:31:03.342Z,10.40
2023-01-10T14:33:34.262Z,11.63
2023-01-10T14:36:08.461Z,11.13
2023-01-10T14:38:39.403Z,11.00
2023-01-10T14:41:13.801Z,9.50
2023-01-10T14:43:47.033Z,11.97
2023-01-10T14:46:19.074Z,11.53
2023-01-10T14:48:51.684Z,11.03
2023-01-10T14:51:23.876Z,11.43
2023-01-10T14:53:58.295Z,11.60
2023-01-10T14:56:28.932Z,11.77
2023-01-10T14:58:57.578Z,11.77
2023-01-10T15:01:29.537Z,12.70
2023-01-10T15:04:02.743Z,15.23
2023-01-10T15:06:51.184Z,14.07
2023-01-10T15:09:19.630Z,13.63
2023-01-10T15:11:50.135Z,12.60
2023-01-10T15:14:23.340Z,13.20
2023-01-10T15:16:55.268Z,13.83
2023-01-10T15:19:26.093Z,13.27
2023-01-10T15:21:55.103Z,15.67
2023-01-10T15:24:34.983Z,13.87
2023-01-10T15:27:05.728Z,15.23
2023-01-10T15:29:35.529Z,14.03
2023-01-10T15:32:10.769Z,13.37
2023-01-10T15:34:42.333Z,12.87
2023-01-10T15:37:22.059Z,14.40
2023-01-10T15:39:50.896Z,14.43
2023-01-10T15:42:22.359Z,15.93
2023-01-10T15:44:53.510Z,13.77
2023-01-10T15:47:52.683Z,12.97
2023-01-10T15:50:28.570Z,14.80
2023-01-10T15:52:58.800Z,15.53
2023-01-10T15:55:39.294Z,12.40
2023-01-10T15:58:23.731Z,13.87
2023-01-10T16:00:53.492Z,12.77
2023-01-10T16:03:35.808Z,16.83
2023-01-10T16:06:09.719Z,14.03
2023-01-10T16:08:39.735Z,11.30
2023-01-10T16:11:38.004Z,11.93
2023-01-10T16:14:05.909Z,12.50
2023-01-10T16:16:34.651Z,13.07
2023-01-10T16:19:03.487Z,10.97
2023-01-10T16:21:39.703Z,10.47
2023-01-10T16:24:14.889Z,10.90
2023-01-10T16:26:43.399Z,12.40
2023-01-10T16:29:13.188Z,10.70
2023-01-10T16:31:41.910Z,11.83
2023-01-10T16:34:10.761Z,13.07
2023-01-10T16:36:41.328Z,10.67
2023-01-10T16:39:15.862Z,13.13
2023-01-10T16:42:02.364Z,11.40
2023-01-10T16:44:32.003Z,12.30
2023-01-10T16:47:01.097Z,12.03
2023-01-10T16:49:29.800Z,12.33
2023-01-10T16:51:59.629Z,12.40
2023-01-10T16:54:28.623Z,13.30
2023-01-10T16:56:57.409Z,12.37
2023-01-10T16:59:26.143Z,11.33
2023-01-10T17:01:57.912Z,11.17
2023-01-10T17:04:29.915Z,10.93
2023-01-10T17:07:00.295Z,10.03
2023-01-10T17:09:31.363Z,12.03
2023-01-10T17:12:03.547Z,11.87
2023-01-10T17:14:34.072Z,12.97
2023-01-10T17:17:05.648Z,14.87
2023-01-10T17:19:34.698Z,17.33
2023-01-10T17:22:04.429Z,15.93
2023-01-10T17:24:33.050Z,15.27
2023-01-10T17:27:01.398Z,15.53
2023-01-10T17:29:31.504Z,15.30
2023-01-10T17:31:59.958Z,16.30
2023-01-10T17:34:29.737Z,16.27
2023-01-10T17:36:58.281Z,16.90
2023-01-10T17:39:28.368Z,16.63
2023-01-10T17:41:57.628Z,17.20
2023-01-10T17:44:26.330Z,17.80
2023-01-10T17:46:56.945Z,17.27
2023-01-10T17:49:26.263Z,15.73
2023-01-10T17:51:54.840Z,15.57
2023-01-10T17:54:23.498Z,18.43
2023-01-10T17:56:53.251Z,17.87
2023-01-10T17:59:22.224Z,18.33
2023-01-10T18:01:50.724Z,19.10
2023-01-10T18:04:19.423Z,16.93
2023-01-10T18:06:47.845Z,18.37
2023-01-10T18:09:16.596Z,20.07
2023-01-10T18:11:44.917Z,22.00
2023-01-10T18:14:32.429Z,20.20
2023-01-10T18:17:00.917Z,22.20
2023-01-10T18:19:30.778Z,21.77
2023-01-10T18:21:59.159Z,18.70
2023-01-10T18:24:27.837Z,17.90
2023-01-10T18:26:56.306Z,17.97
2023-01-10T18:29:26.745Z,15.83
2023-01-10T18:31:55.302Z,21.77
2023-01-10T18:34:24.043Z,25.23
2023-01-10T18:36:52.412Z,29.97
2023-01-10T18:39:21.745Z,31.10
2023-01-10T18:41:50.205Z,28.57
2023-01-10T18:44:19.147Z,30.00
2023-01-10T18:46:48.977Z,27.07
2023-01-10T18:49:18.037Z,25.60
2023-01-10T18:51:46.386Z,25.40
2023-01-10T18:54:15.180Z,25.70
2023-01-10T18:56:43.519Z,24.70
2023-01-10T18:59:12.161Z,25.83
2023-01-10T19:01:40.669Z,25.57
2023-01-10T19:04:11.369Z,23.67
2023-01-10T19:06:39.928Z,22.17
2023-01-10T19:09:08.692Z,24.37
2023-01-10T19:11:37.120Z,22.63
2023-01-10T19:14:05.844Z,22.73
2023-01-10T19:16:34.579Z,25.00
2023-01-10T19:19:05.649Z,23.17
2023-01-10T19:21:37.759Z,21.93
2023-01-10T19:24:08.706Z,22.20
2023-01-10T19:26:37.166Z,22.53
2023-01-10T19:29:06.169Z,22.07
2023-01-10T19:31:34.963Z,22.40
2023-01-10T19:34:03.722Z,23.10
2023-01-10T19:36:34.644Z,19.50
2023-01-10T19:39:07.076Z,19.80
2023-01-10T19:41:36.034Z,18.47
2023-01-10T19:44:07.597Z,20.00
2023-01-10T19:46:37.181Z,16.83
2023-01-10T19:49:07.954Z,17.23
2023-01-10T19:51:37.065Z,21.90
2023-01-10T19:54:09.114Z,21.67
2023-01-10T19:56:38.113Z,18.80
2023-01-10T19:59:07.541Z,17.20
2023-01-10T20:01:36.184Z,18.83
2023-01-10T20:04:07.163Z,18.90
2023-01-10T20:06:38.717Z,19.50
2023-01-10T20:09:11.736Z,19.10
2023-01-10T20:11:42.038Z,17.70
2023-01-10T20:14:14.652Z,17.50
2023-01-10T20:16:44.261Z,18.67
2023-01-10T20:19:13.511Z,17.73
2023-01-10T20:21:43.381Z,19.20
2023-01-10T20:24:16.571Z,23.47
2023-01-10T20:26:45.801Z,25.83
2023-01-10T20:29:14.895Z,24.53
2023-01-10T20:31:46.511Z,30.93
2023-01-10T20:34:15.495Z,20.63
2023-01-10T20:36:44.034Z,19.93
2023-01-10T20:39:14.221Z,20.50
2023-01-10T20:41:42.681Z,20.73
2023-01-10T20:44:11.387Z,22.03
2023-01-10T20:46:40.001Z,20.03
2023-01-10T20:49:08.688Z,21.97
2023-01-10T20:51:37.593Z,23.03
2023-01-10T20:54:08.203Z,19.97
2023-01-10T20:56:40.123Z,17.10
2023-01-10T20:59:09.162Z,18.93
2023-01-10T21:01:37.861Z,17.30
2023-01-10T21:04:08.313Z,17.73
2023-01-10T21:06:37.394Z,15.90
2023-01-10T21:09:06.919Z,16.70
2023-01-10T21:11:52.103Z,16.60
2023-01-10T21:14:25.601Z,20.13
2023-01-10T21:16:54.057Z,19.50
2023-01-10T21:19:22.907Z,23.93
2023-01-10T21:21:51.332Z,22.73
2023-01-10T21:24:22.902Z,19.40
2023-01-10T21:26:52.840Z,18.00
2023-01-10T21:29:21.502Z,17.80
2023-01-10T21:31:52.763Z,20.30
2023-01-10T21:34:21.647Z,17.90
2023-01-10T21:36:50.025Z,19.13
2023-01-10T21:39:19.040Z,18.50
2023-01-10T21:42:04.744Z,17.93
2023-01-10T21:44:35.034Z,17.73
2023-01-10T21:47:03.721Z,16.13
2023-01-10T21:49:32.534Z,17.90
2023-01-10T21:52:00.875Z,15.27
2023-01-10T21:54:29.559Z,15.93
2023-01-10T21:56:58.041Z,18.07
2023-01-10T21:59:26.691Z,17.37
2023-01-10T22:01:56.514Z,17.40
2023-01-10T22:04:25.232Z,17.17
2023-01-10T22:06:53.632Z,17.50
2023-01-10T22:09:24.976Z,16.43
2023-01-10T22:11:53.389Z,16.97
2023-01-10T22:14:22.239Z,16.77
2023-01-10T22:16:50.667Z,16.70
2023-01-10T22:19:20.830Z,15.63
2023-01-10T22:21:49.334Z,14.67
2023-01-10T22:24:18.005Z,15.00
2023-01-10T22:26:46.385Z,15.80
2023-01-10T22:29:16.185Z,15.03
2023-01-10T22:31:44.770Z,16.13
2023-01-10T22:34:13.543Z,16.47
2023-01-10T22:36:43.756Z,14.27
2023-01-10T22:39:12.747Z,14.33
2023-01-10T22:41:41.577Z,13.93
2023-01-10T22:44:19.076Z,13.43
2023-01-10T22:46:47.919Z,12.67
2023-01-10T22:49:16.747Z,13.97
2023-01-10T22:51:46.626Z,14.47
2023-01-10T22:54:16.166Z,12.63
2023-01-10T22:56:45.503Z,13.83
2023-01-10T22:59:14.853Z,13.80
2023-01-10T23:01:43.321Z,13.00
2023-01-10T23:04:12.190Z,12.53
2023-01-10T23:06:40.677Z,12.07
2023-01-10T23:09:10.842Z,13.07
2023-01-10T23:11:39.328Z,13.60
2023-01-10T23:14:08.111Z,14.30
2023-01-10T23:16:36.654Z,12.80
2023-01-10T23:19:05.461Z,13.37
2023-01-10T23:21:33.914Z,12.63
2023-01-10T23:24:02.619Z,13.83
2023-01-10T23:26:32.421Z,15.27
2023-01-10T23:29:01.483Z,13.90
2023-01-10T23:31:31.881Z,14.27
2023-01-10T23:34:00.959Z,14.60
2023-01-10T23:36:29.411Z,15.33
2023-01-10T23:38:58.315Z,15.13
2023-01-10T23:41:27.016Z,16.27
2023-01-10T23:43:57.327Z,15.87
2023-01-10T23:46:25.819Z,14.77
2023-01-10T23:48:54.491Z,14.93
2023-01-10T23:51:22.960Z,15.03
2023-01-10T23:53:51.608Z,13.93
2023-01-10T23:56:20.247Z,13.80
2023-01-10T23:58:52.649Z,14.60
